Time;durP1;ratioP1;P1;durP2;ratioP2;P2;SDS_P1;SDS_P2;PMS_P1;PMS_P2;Temp;Humidity;BMP_temperature;BMP_pressure;BME280_temperature;BME280_humidity;BME280_pressure;Samples;Min_cycle;Max_cycle;Signal;HPM_P1;HPM_P2
2022/06/03 00:00:49;;;;;;;10.75;5.47;;;10.90;99.90;;;;;;4975570;28;20038;-86
2022/06/03 00:03:36;;;;;;;11.27;5.22;;;10.50;99.90;;;;;;4991943;28;20046;-85
2022/06/03 00:06:23;;;;;;;10.80;5.13;;;10.50;99.90;;;;;;5009702;28;20405;-85
2022/06/03 00:09:12;;;;;;;10.20;4.88;;;10.50;99.90;;;;;;4972044;28;20050;-85
2022/06/03 00:12:08;;;;;;;9.63;5.07;;;10.50;99.90;;;;;;4992098;28;20126;-84
2022/06/03 00:14:45;;;;;;;9.90;5.10;;;10.40;99.90;;;;;;4990456;28;20074;-85
2022/06/03 00:17:45;;;;;;;9.75;4.68;;;10.40;99.90;;;;;;4994559;28;20081;-86
2022/06/03 00:20:35;;;;;;;10.32;4.93;;;10.40;99.90;;;;;;4990154;28;20049;-84
2022/06/03 00:23:30;;;;;;;9.95;4.97;;;10.30;99.90;;;;;;4990814;28;20489;-85
2022/06/03 00:26:33;;;;;;;9.27;4.55;;;10.30;99.90;;;;;;5000618;28;20459;-85
2022/06/03 00:29:15;;;;;;;10.63;4.82;;;10.30;99.90;;;;;;4992271;28;20081;-85
2022/06/03 00:32:10;;;;;;;9.77;4.85;;;10.20;99.90;;;;;;4989856;28;20042;-88
2022/06/03 00:35:05;;;;;;;9.48;4.72;;;10.20;99.90;;;;;;4992834;28;20060;-85
2022/06/03 00:37:49;;;;;;;9.82;4.57;;;10.20;99.90;;;;;;4974943;28;20547;-86
2022/06/03 00:40:46;;;;;;;9.13;4.68;;;10.10;99.90;;;;;;4985070;28;20496;-85
2022/06/03 00:43:46;;;;;;;9.88;4.60;;;10.10;99.90;;;;;;4987115;28;20053;-85
2022/06/03 00:46:39;;;;;;;9.13;4.63;;;10.10;99.90;;;;;;5004208;28;20074;-84
2022/06/03 00:49:39;;;;;;;9.80;4.70;;;10.00;99.90;;;;;;4988252;28;20041;-84
2022/06/03 00:52:14;;;;;;;9.95;4.70;;;10.00;99.90;;;;;;4990804;28;20046;-85
2022/06/03 00:55:04;;;;;;;11.50;5.13;;;10.00;99.90;;;;;;4990880;28;20057;-86
2022/06/03 00:57:48;;;;;;;8.85;4.47;;;10.00;99.90;;;;;;4986127;28;20046;-84
2022/06/03 01:00:22;;;;;;;9.43;4.70;;;9.90;99.90;;;;;;4986437;28;20046;-88
2022/06/03 01:03:11;;;;;;;10.13;4.63;;;9.90;99.90;;;;;;4986965;28;20050;-85
2022/06/03 01:05:49;;;;;;;10.20;4.72;;;9.90;99.90;;;;;;4984745;28;20044;-86
2022/06/03 01:08:24;;;;;;;9.60;4.85;;;9.90;99.90;;;;;;4987926;28;20081;-85
2022/06/03 01:11:06;;;;;;;9.35;4.93;;;9.90;99.90;;;;;;4973420;28;20054;-86
2022/06/03 01:14:03;;;;;;;9.50;4.63;;;9.90;99.90;;;;;;4990020;28;20085;-85
2022/06/03 01:17:04;;;;;;;10.10;4.90;;;9.90;99.90;;;;;;4973889;28;20347;-87
2022/06/03 01:19:46;;;;;;;10.00;4.78;;;9.90;99.90;;;;;;4988758;28;20402;-86
2022/06/03 01:22:33;;;;;;;10.07;5.10;;;9.90;99.90;;;;;;4991727;28;20121;-86
2022/06/03 01:25:21;;;;;;;9.82;4.95;;;9.90;99.90;;;;;;4973074;28;20496;-86
2022/06/03 01:27:59;;;;;;;9.48;4.80;;;9.80;99.90;;;;;;4989241;28;20050;-87
2022/06/03 01:30:55;;;;;;;9.85;4.90;;;10.80;99.90;;;;;;4988191;28;20121;-85
2022/06/03 01:33:41;;;;;;;10.15;5.15;;;9.80;99.90;;;;;;4984863;28;20046;-86
2022/06/03 01:36:32;;;;;;;11.07;4.90;;;9.90;99.90;;;;;;4987713;28;20049;-86
2022/06/03 01:39:09;;;;;;;9.75;4.97;;;9.90;99.90;;;;;;5008372;28;20447;-85
2022/06/03 01:41:53;;;;;;;11.13;4.70;;;9.90;99.90;;;;;;4972777;28;20033;-86
2022/06/03 01:44:31;;;;;;;11.10;5.00;;;9.90;99.90;;;;;;4983027;28;20097;-84
2022/06/03 01:47:34;;;;;;;9.35;4.70;;;9.80;99.90;;;;;;4974662;28;20154;-85
2022/06/03 01:50:19;;;;;;;;;;;9.80;99.90;;;;;;4987440;28;20126;-87
2022/06/03 01:53:26;;;;;;;9.93;4.18;;;9.70;99.90;;;;;;4972236;28;19936;-86
2022/06/03 01:56:16;;;;;;;8.63;4.00;;;9.70;99.90;;;;;;4927414;29;20074;-86
2022/06/03 01:58:50;;;;;;;9.15;4.20;;;9.70;99.90;;;;;;4948993;28;20049;-87
2022/06/03 02:01:58;;;;;;;8.65;4.50;;;9.60;99.90;;;;;;4958225;28;20141;-87
2022/06/03 02:04:54;;;;;;;9.30;4.68;;;9.60;99.90;;;;;;4973213;28;20500;-85
2022/06/03 02:07:59;;;;;;;8.85;4.32;;;9.60;99.90;;;;;;5006300;28;20033;-86
2022/06/03 02:10:46;;;;;;;7.70;3.80;;;9.50;99.90;;;;;;5008850;28;20038;-86
2022/06/03 02:13:26;;;;;;;9.02;4.38;;;9.50;99.90;;;;;;4975594;28;20514;-87
2022/06/03 02:16:19;;;;;;;8.63;4.15;;;9.50;99.90;;;;;;4974005;28;20052;-85
2022/06/03 02:19:13;;;;;;;9.55;4.40;;;9.80;99.90;;;;;;4986847;28;20046;-85
2022/06/03 02:21:47;;;;;;;8.82;4.00;;;9.50;99.90;;;;;;4984053;28;20052;-85
2022/06/03 02:24:45;;;;;;;8.63;4.10;;;9.50;99.90;;;;;;5006956;28;20627;-85
2022/06/03 02:27:29;;;;;;;10.25;4.35;;;9.40;99.90;;;;;;5004797;28;20045;-85
2022/06/03 02:30:32;;;;;;;8.38;3.97;;;9.40;99.90;;;;;;4988595;28;20045;-87
2022/06/03 02:33:16;;;;;;;8.43;3.70;;;9.40;99.90;;;;;;5003542;28;20069;-85
2022/06/03 02:36:02;;;;;;;9.48;4.18;;;9.40;99.90;;;;;;4987869;28;20033;-85
2022/06/03 02:38:57;;;;;;;8.27;3.80;;;9.40;99.90;;;;;;4990300;28;20045;-85
2022/06/03 02:41:44;;;;;;;8.50;4.00;;;9.40;99.90;;;;;;4984994;28;20100;-85
2022/06/03 02:44:10;;;;;;;8.40;3.85;;;9.30;99.90;;;;;;4988660;28;20042;-84
2022/06/03 02:46:55;;;;;;;9.02;4.60;;;9.30;99.90;;;;;;4986822;28;20072;-84
2022/06/03 02:49:48;;;;;;;7.80;3.75;;;9.30;99.90;;;;;;4978923;28;20093;-85
2022/06/03 02:52:42;;;;;;;8.70;3.80;;;9.30;99.90;;;;;;4989185;28;20140;-86
2022/06/03 02:55:45;;;;;;;7.93;3.63;;;9.30;99.90;;;;;;4986237;28;20506;-86
2022/06/03 02:58:39;;;;;;;9.40;3.80;;;9.20;99.90;;;;;;4988976;28;20445;-85
2022/06/03 03:01:43;;;;;;;8.85;3.65;;;9.20;99.90;;;;;;4990064;28;20080;-86
2022/06/03 03:04:30;;;;;;;9.15;3.72;;;9.20;99.90;;;;;;4990518;28;20049;-84
2022/06/03 03:07:09;;;;;;;9.52;4.15;;;9.20;99.90;;;;;;4970904;28;20046;-84
2022/06/03 03:10:12;;;;;;;11.00;4.55;;;9.10;99.90;;;;;;4986896;28;20061;-86
2022/06/03 03:12:58;;;;;;;9.95;4.57;;;9.20;99.90;;;;;;4991947;28;20042;-84
2022/06/03 03:15:33;;;;;;;10.88;4.72;;;9.20;99.90;;;;;;4987070;28;20079;-85
2022/06/03 03:18:17;;;;;;;9.15;4.70;;;9.20;99.90;;;;;;4984344;28;20150;-85
2022/06/03 03:21:11;;;;;;;9.32;4.43;;;9.20;99.90;;;;;;4990089;28;20065;-85
2022/06/03 03:24:19;;;;;;;9.35;4.43;;;9.20;99.90;;;;;;5003352;28;20351;-87
2022/06/03 03:27:03;;;;;;;10.13;4.80;;;9.20;99.90;;;;;;4994369;28;20054;-85
2022/06/03 03:29:51;;;;;;;8.85;4.60;;;9.20;99.90;;;;;;5000503;28;20128;-85
2022/06/03 03:32:26;;;;;;;9.77;4.72;;;9.20;99.90;;;;;;4971063;28;20525;-84
2022/06/03 03:35:07;;;;;;;9.25;4.68;;;9.20;99.90;;;;;;4985270;28;20074;-86
2022/06/03 03:37:57;;;;;;;10.48;5.45;;;9.20;99.90;;;;;;4991899;28;20045;-83
2022/06/03 03:40:47;;;;;;;10.75;5.47;;;9.20;99.90;;;;;;5006977;28;20153;-84
2022/06/03 03:43:50;;;;;;;11.65;5.28;;;9.20;99.90;;;;;;4987886;28;20038;-85
2022/06/03 03:46:50;;;;;;;10.63;5.93;;;9.10;99.90;;;;;;4991667;28;20073;-85
2022/06/03 03:49:28;;;;;;;15.25;5.47;;;9.10;99.90;;;;;;4986984;28;20053;-85
2022/06/03 03:51:53;;;;;;;11.48;4.93;;;9.10;99.90;;;;;;4994201;28;20125;-85
2022/06/03 03:54:31;;;;;;;11.10;5.95;;;10.50;99.90;;;;;;4989052;28;20199;-85
2022/06/03 03:57:12;;;;;;;10.73;5.93;;;9.50;99.90;;;;;;4986285;28;20038;-84
2022/06/03 03:59:56;;;;;;;13.75;6.40;;;9.20;99.90;;;;;;5009275;28;20652;-86
2022/06/03 04:02:44;;;;;;;12.18;5.90;;;9.20;99.90;;;;;;4992238;28;20121;-84
2022/06/03 04:05:38;;;;;;;11.10;5.97;;;9.30;99.90;;;;;;4990472;28;20567;-86
2022/06/03 04:08:35;;;;;;;10.07;5.80;;;9.40;99.90;;;;;;5004545;28;20087;-85
2022/06/03 04:11:29;;;;;;;12.65;5.90;;;9.50;99.90;;;;;;4991158;28;20058;-85
2022/06/03 04:14:02;;;;;;;11.55;5.78;;;9.50;99.90;;;;;;4989603;28;20056;-86
2022/06/03 04:16:40;;;;;;;12.02;5.88;;;9.60;99.90;;;;;;4990286;28;20500;-85
2022/06/03 04:19:25;;;;;;;12.30;5.93;;;9.60;99.90;;;;;;4972833;28;20516;-85
2022/06/03 04:22:04;;;;;;;11.48;6.28;;;9.70;99.90;;;;;;4972931;28;20054;-85
2022/06/03 04:24:54;;;;;;;11.35;6.13;;;9.80;99.90;;;;;;4970901;28;20217;-85
2022/06/03 04:27:58;;;;;;;19.98;6.88;;;9.90;99.90;;;;;;4983013;28;20038;-85
2022/06/03 04:31:01;;;;;;;11.07;6.40;;;10.00;99.90;;;;;;4968402;28;20413;-84
2022/06/03 04:33:52;;;;;;;12.65;6.50;;;10.10;99.90;;;;;;4986688;28;20054;-85
2022/06/03 04:36:41;;;;;;;13.63;7.40;;;10.20;99.90;;;;;;4974070;28;20316;-84
2022/06/03 04:39:31;;;;;;;14.63;7.88;;;10.20;99.90;;;;;;4964122;28;20117;-85
2022/06/03 04:42:09;;;;;;;13.57;7.30;;;10.30;99.90;;;;;;4974333;28;20069;-85
2022/06/03 04:44:41;;;;;;;14.85;8.15;;;10.40;99.90;;;;;;4971958;28;20045;-85
2022/06/03 04:47:37;;;;;;;12.95;7.47;;;10.50;99.90;;;;;;4954161;28;20053;-86
2022/06/03 04:50:27;;;;;;;14.00;7.57;;;10.60;99.90;;;;;;4947273;28;20595;-86
2022/06/03 04:52:52;;;;;;;16.48;8.32;;;10.70;99.90;;;;;;4969911;28;20045;-85
2022/06/03 04:55:46;;;;;;;13.60;7.38;;;10.90;99.90;;;;;;4951946;28;20448;-85
2022/06/03 04:58:39;;;;;;;11.50;7.07;;;11.00;99.90;;;;;;4988178;28;20074;-85
2022/06/03 05:01:23;;;;;;;13.68;6.75;;;11.10;99.90;;;;;;4965853;28;20294;-85
2022/06/03 05:04:15;;;;;;;11.60;6.70;;;11.20;99.90;;;;;;4972322;28;20133;-84
2022/06/03 05:07:22;;;;;;;12.63;6.53;;;11.30;99.90;;;;;;4937409;28;20053;-85
2022/06/03 05:10:13;;;;;;;12.60;6.30;;;11.50;99.90;;;;;;4963363;28;20089;-85
2022/06/03 05:12:54;;;;;;;13.18;6.53;;;11.60;99.90;;;;;;4969507;28;20042;-86
2022/06/03 05:15:35;;;;;;;11.93;6.78;;;11.70;99.90;;;;;;4985426;28;20057;-87
2022/06/03 05:18:01;;;;;;;11.50;5.53;;;11.70;99.90;;;;;;4968260;28;20058;-85
2022/06/03 05:20:54;;;;;;;10.20;5.97;;;11.80;99.90;;;;;;4979933;28;20042;-84
2022/06/03 05:23:44;;;;;;;10.55;5.85;;;12.00;99.90;;;;;;4971081;28;20042;-85
2022/06/03 05:26:44;;;;;;;11.10;5.80;;;12.10;99.90;;;;;;5002397;28;20038;-84
2022/06/03 05:29:20;;;;;;;10.48;5.75;;;12.30;99.90;;;;;;4988390;28;20039;-85
2022/06/03 05:32:16;;;;;;;11.68;5.68;;;12.40;99.90;;;;;;4978401;28;20129;-84
2022/06/03 05:35:18;;;;;;;11.68;5.88;;;12.50;99.90;;;;;;4986584;28;20042;-85
2022/06/03 05:37:51;;;;;;;11.25;5.50;;;12.60;99.90;;;;;;4981675;28;20406;-84
2022/06/03 05:40:32;;;;;;;12.48;5.32;;;12.80;99.90;;;;;;4982527;28;20214;-85
2022/06/03 05:43:19;;;;;;;12.75;4.93;;;12.70;99.90;;;;;;4986579;28;20089;-86
2022/06/03 05:46:16;;;;;;;10.88;4.70;;;12.80;99.90;;;;;;4986123;28;20527;-86
2022/06/03 05:49:08;;;;;;;13.05;4.50;;;12.80;99.90;;;;;;4987248;28;20054;-87
2022/06/03 05:52:06;;;;;;;11.40;4.75;;;12.90;99.90;;;;;;4987121;28;20054;-88
2022/06/03 05:54:39;;;;;;;9.93;4.55;;;12.90;99.90;;;;;;4982523;28;20058;-86
2022/06/03 05:57:21;;;;;;;9.82;4.50;;;13.00;99.90;;;;;;5000643;28;20482;-85
2022/06/03 06:00:12;;;;;;;10.38;4.35;;;13.00;99.90;;;;;;4970277;28;20095;-87
2022/06/03 06:02:46;;;;;;;9.95;4.60;;;13.10;99.90;;;;;;4989469;28;20042;-87
2022/06/03 06:05:35;;;;;;;10.13;4.00;;;13.20;99.90;;;;;;4969379;28;20042;-88
2022/06/03 06:08:43;;;;;;;10.25;4.47;;;13.30;99.90;;;;;;4985915;28;20038;-87
2022/06/03 06:11:32;;;;;;;8.45;3.65;;;13.40;99.90;;;;;;4970369;28;20061;-86
2022/06/03 06:14:10;;;;;;;8.77;3.65;;;13.50;99.90;;;;;;4980314;28;20042;-87
2022/06/03 06:16:40;;;;;;;8.27;3.58;;;13.70;99.90;;;;;;4982366;28;20094;-87
2022/06/03 06:19:08;;;;;;;10.30;4.13;;;13.70;99.90;;;;;;4991922;28;20121;-87
2022/06/03 06:21:49;;;;;;;9.55;4.07;;;13.80;99.90;;;;;;4991604;28;20104;-87
2022/06/03 06:24:29;;;;;;;11.98;4.00;;;13.90;99.90;;;;;;5004314;28;20680;-87
2022/06/03 06:27:28;;;;;;;10.20;3.60;;;14.00;99.90;;;;;;4983807;28;20096;-85
2022/06/03 06:30:17;;;;;;;10.23;3.45;;;14.10;99.90;;;;;;4972791;28;20262;-85
2022/06/03 06:33:10;;;;;;;8.75;3.80;;;14.30;99.90;;;;;;4968913;28;20053;-86
2022/06/03 06:36:05;;;;;;;9.00;3.60;;;14.30;99.90;;;;;;4986497;28;20535;-85
2022/06/03 06:38:49;;;;;;;8.20;3.22;;;14.50;99.90;;;;;;4984601;28;20052;-85
2022/06/03 06:41:34;;;;;;;9.23;3.10;;;14.60;99.90;;;;;;4988583;28;20064;-87
2022/06/03 06:44:07;;;;;;;8.68;2.92;;;14.70;99.90;;;;;;4981383;28;20098;-86
2022/06/03 06:47:01;;;;;;;7.25;2.70;;;14.70;99.90;;;;;;4980177;28;20070;-87
2022/06/03 06:49:41;;;;;;;8.18;2.65;;;14.70;99.90;;;;;;4986316;28;20134;-86
2022/06/03 06:52:18;;;;;;;7.20;2.45;;;14.70;99.90;;;;;;4985363;28;20072;-88
2022/06/03 06:55:12;;;;;;;8.60;2.67;;;14.90;99.90;;;;;;4986771;28;20467;-84
2022/06/03 06:57:44;;;;;;;6.20;2.33;;;15.00;99.90;;;;;;4984776;28;20052;-88
2022/06/03 07:00:24;;;;;;;7.07;2.85;;;15.20;99.90;;;;;;4987738;28;20053;-86
2022/06/03 07:03:00;;;;;;;8.00;2.78;;;15.30;99.90;;;;;;4979643;28;20180;-84
2022/06/03 07:05:25;;;;;;;7.50;2.67;;;15.40;99.90;;;;;;4982198;28;20033;-85
2022/06/03 07:07:51;;;;;;;8.50;2.85;;;15.50;99.90;;;;;;4970473;28;20588;-86
2022/06/03 07:10:40;;;;;;;9.32;3.08;;;15.70;99.90;;;;;;4981503;28;20424;-87
2022/06/03 07:13:27;;;;;;;6.20;2.30;;;15.70;99.90;;;;;;4992250;28;20047;-86
2022/06/03 07:16:09;;;;;;;8.10;2.50;;;15.80;99.90;;;;;;4998763;28;20458;-89
2022/06/03 07:22:14;;;;;;;5.65;2.20;;;15.80;99.90;;;;;;4980307;28;20046;-86
2022/06/03 07:24:46;;;;;;;9.48;2.78;;;16.00;99.90;;;;;;5003405;28;20049;-85
2022/06/03 07:27:20;;;;;;;5.47;2.05;;;16.10;99.90;;;;;;4987170;28;20053;-85
2022/06/03 07:29:55;;;;;;;5.82;1.90;;;16.20;99.90;;;;;;5003275;28;20396;-85
2022/06/03 07:32:25;;;;;;;4.10;1.92;;;16.40;99.90;;;;;;4986139;28;20393;-86
2022/06/03 07:34:52;;;;;;;6.18;2.13;;;16.40;99.90;;;;;;4986592;28;20109;-86
2022/06/03 07:37:34;;;;;;;5.75;2.00;;;16.50;99.90;;;;;;4984050;28;20132;-85
2022/06/03 07:40:39;;;;;;;5.78;2.00;;;16.50;99.90;;;;;;4988709;28;20041;-88
2022/06/03 07:43:14;;;;;;;5.35;1.75;;;16.60;99.90;;;;;;4971021;28;20122;-86
2022/06/03 07:45:56;;;;;;;5.30;1.75;;;16.70;99.90;;;;;;4988024;28;20624;-87
2022/06/03 07:48:25;;;;;;;6.15;1.90;;;16.70;99.90;;;;;;4977314;28;20046;-86
2022/06/03 07:50:57;;;;;;;5.50;1.98;;;16.80;99.90;;;;;;4979544;28;20041;-85
2022/06/03 07:53:34;;;;;;;4.75;1.80;;;16.90;99.90;;;;;;4989159;28;20457;-87
2022/06/03 07:56:00;;;;;;;4.82;1.80;;;17.10;99.90;;;;;;4985354;28;20082;-86
2022/06/03 07:58:28;;;;;;;6.72;2.00;;;17.10;99.90;;;;;;4984167;28;20068;-88
2022/06/03 08:00:54;;;;;;;5.13;1.73;;;17.30;99.90;;;;;;5006921;28;20046;-86
2022/06/03 08:03:34;;;;;;;5.18;1.90;;;17.20;99.90;;;;;;4984811;28;20045;-86
2022/06/03 08:06:03;;;;;;;7.57;1.88;;;17.20;99.90;;;;;;5004764;28;20069;-86
2022/06/03 08:11:15;;;;;;;5.35;1.83;;;17.30;99.90;;;;;;4984778;28;20058;-87
2022/06/03 08:13:41;;;;;;;4.63;1.58;;;17.40;99.90;;;;;;4988709;28;20131;-87
2022/06/03 08:16:37;;;;;;;3.88;1.60;;;17.50;99.90;;;;;;4986136;28;20060;-85
2022/06/03 08:19:21;;;;;;;6.28;1.70;;;17.60;99.90;;;;;;4956624;28;20579;-85
2022/06/03 08:21:53;;;;;;;6.63;1.77;;;17.80;99.90;;;;;;4963632;28;20042;-86
2022/06/03 08:24:21;;;;;;;4.60;1.80;;;18.00;99.90;;;;;;4955639;28;20260;-87
2022/06/03 08:26:53;;;;;;;5.10;1.80;;;18.00;99.90;;;;;;4953316;28;20052;-87
2022/06/03 08:29:25;;;;;;;4.20;1.52;;;17.90;99.90;;;;;;4966807;28;20054;-86
2022/06/03 08:31:52;;;;;;;;;;;18.00;99.90;;;;;;4969886;28;20405;-86
2022/06/03 08:34:25;;;;;;;5.15;1.90;;;18.10;99.90;;;;;;4962349;28;20396;-85
2022/06/03 08:36:51;;;;;;;3.40;1.63;;;18.20;99.90;;;;;;4970547;28;20050;-87
2022/06/03 08:39:21;;;;;;;5.35;1.70;;;18.10;99.90;;;;;;4934877;28;20050;-85
2022/06/03 08:42:11;;;;;;;4.80;1.67;;;18.20;99.90;;;;;;4984191;28;20061;-86
2022/06/03 08:44:59;;;;;;;5.60;1.77;;;18.20;99.90;;;;;;4959895;28;20539;-86
2022/06/03 08:47:45;;;;;;;5.53;1.80;;;18.20;99.90;;;;;;4964306;28;20050;-86
2022/06/03 08:50:23;;;;;;;;;;;18.20;99.90;;;;;;4989137;28;20436;-86
2022/06/03 08:53:06;;;;;;;6.07;1.77;;;18.30;99.90;;;;;;4966756;28;19988;-87
2022/06/03 08:55:45;;;;;;;6.10;1.90;;;18.40;99.90;;;;;;4972464;28;20042;-85
2022/06/03 08:58:37;;;;;;;6.68;2.05;;;18.50;99.90;;;;;;4960266;28;20046;-87
2022/06/03 09:01:06;;;;;;;7.57;2.05;;;18.50;99.90;;;;;;4967012;28;20107;-85
2022/06/03 09:03:42;;;;;;;4.35;1.80;;;18.50;99.90;;;;;;4970344;28;20385;-85
2022/06/03 09:06:27;;;;;;;3.78;1.65;;;18.70;99.90;;;;;;4980863;28;20104;-87
2022/06/03 09:08:59;;;;;;;7.90;2.00;;;18.90;99.90;;;;;;4967401;28;20085;-86
2022/06/03 09:11:35;;;;;;;6.45;2.10;;;19.00;99.90;;;;;;4957389;28;20053;-86
2022/06/03 09:14:05;;;;;;;5.93;2.00;;;19.00;99.90;;;;;;4983694;28;20109;-86
2022/06/03 09:16:33;;;;;;;5.38;1.92;;;19.10;99.90;;;;;;4965807;28;20559;-86
2022/06/03 09:19:22;;;;;;;5.00;1.80;;;19.20;99.90;;;;;;4983692;28;20053;-86
2022/06/03 09:21:51;;;;;;;6.18;2.05;;;19.20;99.90;;;;;;4971071;28;20046;-86
2022/06/03 09:24:31;;;;;;;5.18;1.85;;;19.20;99.90;;;;;;4987705;28;20042;-85
2022/06/03 09:26:59;;;;;;;6.65;2.05;;;19.20;99.90;;;;;;4984513;28;20113;-86
2022/06/03 09:29:29;;;;;;;6.30;2.10;;;19.20;99.90;;;;;;4967284;28;20069;-88
2022/06/03 09:32:01;;;;;;;5.88;1.98;;;19.30;99.90;;;;;;4971622;28;20053;-84
2022/06/03 09:34:45;;;;;;;6.22;2.00;;;19.30;99.90;;;;;;4986931;28;20530;-86
2022/06/03 09:37:27;;;;;;;6.22;2.10;;;19.40;99.90;;;;;;4985991;28;20061;-84
2022/06/03 09:39:54;;;;;;;6.68;2.30;;;19.50;99.90;;;;;;4989032;28;20053;-85
2022/06/03 09:42:22;;;;;;;5.32;1.92;;;19.70;99.90;;;;;;4987760;28;20046;-87
2022/06/03 09:44:49;;;;;;;5.95;2.10;;;19.70;99.90;;;;;;4986619;28;20407;-87
2022/06/03 09:47:18;;;;;;;6.90;2.20;;;19.80;99.90;;;;;;4986241;28;20341;-85
2022/06/03 09:49:50;;;;;;;5.93;2.10;;;19.80;99.90;;;;;;4985240;28;20495;-87
2022/06/03 09:52:19;;;;;;;7.38;2.15;;;19.90;99.90;;;;;;4983006;28;20389;-85
2022/06/03 09:54:47;;;;;;;7.90;2.08;;;19.80;99.90;;;;;;4987735;28;20054;-85
2022/06/03 09:57:30;;;;;;;5.80;1.98;;;19.90;99.90;;;;;;4986693;28;20426;-86
2022/06/03 10:00:14;;;;;;;5.78;2.05;;;19.90;99.90;;;;;;4970304;28;20050;-87
2022/06/03 10:02:42;;;;;;;4.75;1.80;;;19.90;99.90;;;;;;4983298;28;20034;-87
2022/06/03 10:05:16;;;;;;;4.22;1.70;;;19.90;99.90;;;;;;4986975;28;20046;-88
2022/06/03 10:07:44;;;;;;;5.82;2.00;;;20.00;99.90;;;;;;4984547;28;20125;-87
2022/06/03 10:13:00;;;;;;;4.55;1.70;;;20.10;99.90;;;;;;4985922;28;20129;-86
2022/06/03 10:15:38;;;;;;;6.70;1.98;;;20.10;99.90;;;;;;4957106;28;20141;-86
2022/06/03 10:18:22;;;;;;;6.82;2.20;;;20.20;99.90;;;;;;4983545;28;20116;-85
2022/06/03 10:20:51;;;;;;;6.40;2.20;;;20.30;99.90;;;;;;4982723;28;20052;-88
2022/06/03 10:23:24;;;;;;;5.82;1.92;;;20.40;99.90;;;;;;4988061;28;20586;-86
2022/06/03 10:25:51;;;;;;;5.75;1.98;;;20.40;99.90;;;;;;4991001;28;20557;-86
2022/06/03 10:28:17;;;;;;;5.57;1.83;;;20.40;99.90;;;;;;4984652;28;20049;-86
2022/06/03 10:30:45;;;;;;;6.10;2.20;;;20.40;99.90;;;;;;5005972;28;20153;-85
2022/06/03 10:33:22;;;;;;;7.75;2.28;;;20.50;99.90;;;;;;4990157;28;20053;-85
2022/06/03 10:35:50;;;;;;;4.90;1.70;;;20.40;99.90;;;;;;4984242;28;20034;-84
2022/06/03 10:38:21;;;;;;;7.40;1.98;;;20.60;99.90;;;;;;4995046;28;20057;-85
2022/06/03 10:40:51;;;;;;;4.55;1.92;;;20.60;99.90;;;;;;4986023;28;20045;-86
2022/06/03 10:43:24;;;;;;;6.38;2.13;;;20.70;99.90;;;;;;4984304;28;20048;-84
2022/06/03 10:45:50;;;;;;;6.15;1.90;;;20.70;99.90;;;;;;4984128;28;20038;-85
2022/06/03 10:48:28;;;;;;;5.85;1.90;;;20.70;99.90;;;;;;4980306;28;20038;-85
2022/06/03 10:51:14;;;;;;;5.55;1.90;;;20.70;99.90;;;;;;5005567;28;20377;-85
2022/06/03 11:02:03;;;;;;;6.45;2.10;;;20.90;99.90;;;;;;4986730;28;20449;-88
2022/06/03 11:04:38;;;;;;;5.38;1.80;;;20.90;99.90;;;;;;4969208;28;20057;-87
2022/06/03 11:07:23;;;;;;;4.75;1.77;;;20.90;99.90;;;;;;5002695;28;20503;-90
2022/06/03 11:10:00;;;;;;;6.05;1.90;;;21.00;99.90;;;;;;4987564;28;20071;-85
2022/06/03 11:12:28;;;;;;;7.53;1.85;;;21.10;99.90;;;;;;4981377;28;20501;-85
2022/06/03 11:14:54;;;;;;;5.30;1.83;;;21.20;99.90;;;;;;4999921;28;20038;-83
2022/06/03 11:17:36;;;;;;;5.88;1.88;;;21.30;99.90;;;;;;4985942;28;20116;-85
2022/06/03 11:20:17;;;;;;;4.97;1.65;;;21.40;99.90;;;;;;5001155;28;20124;-86
2022/06/03 11:22:45;;;;;;;6.00;1.60;;;21.40;99.90;;;;;;4986795;28;20472;-85
2022/06/03 11:25:27;;;;;;;4.40;1.73;;;21.30;99.90;;;;;;4985903;28;20038;-85
2022/06/03 11:27:57;;;;;;;4.70;1.80;;;21.20;99.90;;;;;;4960845;28;20046;-85
2022/06/03 11:31:04;;;;;;;5.22;1.80;;;21.30;99.90;;;;;;5014328;28;20060;-84
2022/06/03 11:33:44;;;;;;;4.15;1.70;;;21.40;99.90;;;;;;4971005;28;20061;-83
2022/06/03 11:36:19;;;;;;;4.35;1.70;;;21.20;99.90;;;;;;4984171;28;20041;-85
2022/06/03 11:38:52;;;;;;;3.65;1.70;;;21.20;99.90;;;;;;4971482;28;20045;-84
2022/06/03 11:41:28;;;;;;;;;;;21.20;99.90;;;;;;4986067;28;20048;-84
2022/06/03 11:44:21;;;;;;;5.70;1.77;;;21.20;99.30;;;;;;5005550;28;20311;-84
2022/06/03 11:46:52;;;;;;;5.07;1.90;;;21.20;99.90;;;;;;4983393;28;20145;-84
2022/06/03 11:49:21;;;;;;;5.45;1.80;;;21.40;99.90;;;;;;4981703;28;20046;-84
2022/06/03 11:51:47;;;;;;;6.68;1.90;;;21.40;99.90;;;;;;4987110;28;20046;-86
2022/06/03 11:54:16;;;;;;;4.78;1.60;;;21.50;99.70;;;;;;4970890;28;20404;-84
2022/06/03 11:56:45;;;;;;;5.22;1.83;;;21.50;99.80;;;;;;4992707;28;20112;-86
2022/06/03 11:59:29;;;;;;;4.43;1.67;;;21.60;99.30;;;;;;4988420;28;20135;-86
2022/06/03 12:02:28;;;;;;;5.07;1.90;;;21.60;99.20;;;;;;4990142;28;20124;-86
2022/06/03 12:05:24;;;;;;;5.78;1.77;;;21.70;98.50;;;;;;5001945;28;20034;-85
2022/06/03 12:07:59;;;;;;;5.20;1.95;;;21.60;97.10;;;;;;4971211;28;20496;-85
2022/06/03 12:10:40;;;;;;;5.07;1.67;;;21.70;97.50;;;;;;4989444;28;20469;-83
2022/06/03 12:13:15;;;;;;;5.95;1.80;;;21.70;97.80;;;;;;4989086;28;20121;-83
2022/06/03 12:15:51;;;;;;;4.70;1.50;;;21.80;97.60;;;;;;4972951;28;20092;-86
2022/06/03 12:18:36;;;;;;;4.07;1.67;;;21.80;97.80;;;;;;4970022;28;20060;-85
2022/06/03 12:21:14;;;;;;;3.85;1.70;;;21.90;97.10;;;;;;4985395;28;20038;-83
2022/06/03 12:23:43;;;;;;;5.47;1.83;;;22.00;97.30;;;;;;5005165;28;20046;-86
2022/06/03 12:26:29;;;;;;;5.78;1.70;;;22.00;97.60;;;;;;4984033;28;20045;-85
2022/06/03 12:29:28;;;;;;;4.43;1.60;;;22.00;94.60;;;;;;4988855;28;20042;-85
2022/06/03 12:32:13;;;;;;;6.35;1.70;;;22.10;95.40;;;;;;4983229;28;20133;-86
2022/06/03 12:34:39;;;;;;;5.40;1.92;;;22.10;94.50;;;;;;4971810;28;20042;-83
2022/06/03 12:37:31;;;;;;;5.22;1.95;;;22.30;96.00;;;;;;4986755;28;20038;-86
2022/06/03 12:40:02;;;;;;;3.78;1.45;;;22.50;93.90;;;;;;4988766;28;20056;-87
2022/06/03 12:42:37;;;;;;;3.85;1.52;;;22.20;94.20;;;;;;4987431;28;20193;-86
2022/06/03 12:45:12;;;;;;;3.90;1.48;;;22.10;92.60;;;;;;4987235;28;20042;-85
2022/06/03 12:47:44;;;;;;;5.15;1.70;;;22.20;93.90;;;;;;4993200;28;20049;-88
2022/06/03 12:50:35;;;;;;;4.88;1.83;;;22.30;93.60;;;;;;4975463;28;20411;-85
2022/06/03 12:53:21;;;;;;;5.65;1.88;;;22.20;96.70;;;;;;4988315;28;20062;-86
2022/06/03 12:55:54;;;;;;;6.22;1.80;;;22.20;98.10;;;;;;4986560;28;20523;-87
2022/06/03 12:58:36;;;;;;;6.88;1.88;;;22.00;98.20;;;;;;4984121;28;20050;-85
2022/06/03 13:01:05;;;;;;;10.55;2.17;;;22.10;99.30;;;;;;4995767;28;20501;-85
2022/06/03 13:03:34;;;;;;;4.82;1.70;;;22.00;99.70;;;;;;4964221;28;20046;-85
2022/06/03 13:06:03;;;;;;;5.88;1.67;;;21.90;99.90;;;;;;5006882;28;20468;-87
2022/06/03 13:08:28;;;;;;;5.13;1.60;;;21.80;99.90;;;;;;4988929;28;20038;-86
2022/06/03 13:11:19;;;;;;;4.88;1.70;;;21.50;99.90;;;;;;4991582;28;20037;-85
2022/06/03 13:13:56;;;;;;;5.07;1.70;;;21.40;99.90;;;;;;4984967;28;20125;-86
2022/06/03 13:16:36;;;;;;;5.78;1.80;;;21.20;99.90;;;;;;4984450;28;20052;-84
2022/06/03 13:19:14;;;;;;;5.65;1.70;;;21.20;99.90;;;;;;5003485;28;20655;-85
2022/06/03 13:21:58;;;;;;;7.38;1.95;;;21.40;99.90;;;;;;5002664;28;20061;-86
2022/06/03 13:24:24;;;;;;;4.90;1.80;;;21.40;99.90;;;;;;5005641;28;20396;-88
2022/06/03 13:27:24;;;;;;;9.18;2.00;;;21.40;99.90;;;;;;4993337;28;20041;-85
2022/06/03 13:29:51;;;;;;;5.10;1.80;;;21.10;99.90;;;;;;4986771;28;20088;-89
2022/06/03 13:32:36;;;;;;;3.72;1.42;;;21.00;99.90;;;;;;4975310;28;20074;-85
2022/06/03 13:35:07;;;;;;;6.40;1.70;;;21.00;99.90;;;;;;4983198;28;20045;-86
2022/06/03 13:38:11;;;;;;;4.47;1.60;;;21.00;99.90;;;;;;4989974;28;20547;-92
2022/06/03 13:40:37;;;;;;;5.38;1.70;;;20.90;99.90;;;;;;4970612;28;20045;-88
2022/06/03 13:43:21;;;;;;;6.82;1.70;;;20.90;99.90;;;;;;4986652;28;20124;-84
2022/06/03 13:45:57;;;;;;;5.38;1.67;;;21.00;99.90;;;;;;4989590;28;20096;-86
2022/06/03 13:48:29;;;;;;;4.40;1.50;;;21.00;99.90;;;;;;4985039;28;20050;-85
2022/06/03 13:50:55;;;;;;;3.65;1.40;;;21.00;99.90;;;;;;4985511;28;20042;-88
2022/06/03 13:53:33;;;;;;;5.43;1.50;;;21.00;99.90;;;;;;4986011;28;20400;-85
2022/06/03 13:56:08;;;;;;;5.93;1.50;;;21.00;99.90;;;;;;4986622;28;20538;-85
2022/06/03 13:58:37;;;;;;;5.28;1.50;;;20.90;99.90;;;;;;4992261;28;20048;-85
2022/06/03 14:01:20;;;;;;;8.40;1.70;;;20.90;99.90;;;;;;4976550;28;20049;-87
2022/06/03 14:04:34;;;;;;;;;;;;;;;;;;;;;
2022/06/03 14:07:08;;;;;;;5.45;1.63;;;20.90;99.90;;;;;;4973763;28;20439;-87
2022/06/03 14:09:47;;;;;;;4.40;1.50;;;20.70;99.90;;;;;;4987530;28;20041;-88
2022/06/03 14:12:38;;;;;;;6.20;1.70;;;20.70;99.90;;;;;;4989837;28;20048;-88
2022/06/03 14:15:22;;;;;;;5.13;1.40;;;20.70;99.90;;;;;;4988383;28;20535;-86
2022/06/03 14:18:01;;;;;;;7.30;1.67;;;20.60;99.90;;;;;;4982834;28;20090;-88
2022/06/03 14:20:31;;;;;;;3.60;1.38;;;20.60;99.90;;;;;;4985938;28;20058;-88